sensor_id;sensor_type;location;lat;lon;timestamp;P1;P2;P0
76661;PMS5003;65579;45.534;6.212;2023-02-01T00:00:02;38;36;
76661;PMS5003;65579;45.534;6.212;2023-02-01T00:02:27;43;41;
76661;PMS5003;65579;45.534;6.212;2023-02-01T00:04:51;51;43;
76661;PMS5003;65579;45.534;6.212;2023-02-01T00:07:17;53;48;
76661;PMS5003;65579;45.534;6.212;2023-02-01T00:09:42;49;43;
76661;PMS5003;65579;45.534;6.212;2023-02-01T00:12:08;48;48;
76661;PMS5003;65579;45.534;6.212;2023-02-01T00:14:33;65;57;
76661;PMS5003;65579;45.534;6.212;2023-02-01T00:16:59;66;60;
76661;PMS5003;65579;45.534;6.212;2023-02-01T00:19:24;53;51;
76661;PMS5003;65579;45.534;6.212;2023-02-01T00:21:49;60;56;
76661;PMS5003;65579;45.534;6.212;2023-02-01T00:24:15;59;48;
76661;PMS5003;65579;45.534;6.212;2023-02-01T00:26:41;49;45;
76661;PMS5003;65579;45.534;6.212;2023-02-01T00:29:08;50;44;
76661;PMS5003;65579;45.534;6.212;2023-02-01T00:31:31;58;56;
76661;PMS5003;65579;45.534;6.212;2023-02-01T00:33:57;57;50;
76661;PMS5003;65579;45.534;6.212;2023-02-01T00:36:21;55;50;
76661;PMS5003;65579;45.534;6.212;2023-02-01T00:38:46;46;44;
76661;PMS5003;65579;45.534;6.212;2023-02-01T00:41:13;45;39;
76661;PMS5003;65579;45.534;6.212;2023-02-01T00:43:38;42;39;
76661;PMS5003;65579;45.534;6.212;2023-02-01T00:46:03;54;48;
76661;PMS5003;65579;45.534;6.212;2023-02-01T00:48:29;75;65;
76661;PMS5003;65579;45.534;6.212;2023-02-01T00:50:58;82;72;
76661;PMS5003;65579;45.534;6.212;2023-02-01T00:53:20;84;72;
76661;PMS5003;65579;45.534;6.212;2023-02-01T00:55:47;63;60;
76661;PMS5003;65579;45.534;6.212;2023-02-01T00:58:12;63;61;
76661;PMS5003;65579;45.534;6.212;2023-02-01T01:03:03;74;70;
76661;PMS5003;65579;45.534;6.212;2023-02-01T01:05:28;69;66;
76661;PMS5003;65579;45.534;6.212;2023-02-01T01:07:54;73;64;
76661;PMS5003;65579;45.534;6.212;2023-02-01T01:10:19;76;69;
76661;PMS5003;65579;45.534;6.212;2023-02-01T01:12:45;58;55;
76661;PMS5003;65579;45.534;6.212;2023-02-01T01:15:10;57;47;
76661;PMS5003;65579;45.534;6.212;2023-02-01T01:17:36;56;52;
76661;PMS5003;65579;45.534;6.212;2023-02-01T01:20:01;61;58;
76661;PMS5003;65579;45.534;6.212;2023-02-01T01:22:26;75;68;
76661;PMS5003;65579;45.534;6.212;2023-02-01T01:24:52;82;75;
76661;PMS5003;65579;45.534;6.212;2023-02-01T01:27:17;89;80;
76661;PMS5003;65579;45.534;6.212;2023-02-01T01:29:43;82;73;
76661;PMS5003;65579;45.534;6.212;2023-02-01T01:32:08;63;61;
76661;PMS5003;65579;45.534;6.212;2023-02-01T01:34:33;53;48;
76661;PMS5003;65579;45.534;6.212;2023-02-01T01:37:00;52;48;
76661;PMS5003;65579;45.534;6.212;2023-02-01T01:39:24;66;61;
76661;PMS5003;65579;45.534;6.212;2023-02-01T01:41:49;59;50;
76661;PMS5003;65579;45.534;6.212;2023-02-01T01:46:40;43;42;
76661;PMS5003;65579;45.534;6.212;2023-02-01T01:49:07;48;45;
76661;PMS5003;65579;45.534;6.212;2023-02-01T01:51:31;59;52;
76661;PMS5003;65579;45.534;6.212;2023-02-01T01:53:58;85;73;
76661;PMS5003;65579;45.534;6.212;2023-02-01T01:56:21;71;61;
76661;PMS5003;65579;45.534;6.212;2023-02-01T01:58:47;73;67;
76661;PMS5003;65579;45.534;6.212;2023-02-01T02:01:12;59;56;
76661;PMS5003;65579;45.534;6.212;2023-02-01T02:03:39;90;78;
76661;PMS5003;65579;45.534;6.212;2023-02-01T02:06:03;78;66;
76661;PMS5003;65579;45.534;6.212;2023-02-01T02:08:29;68;59;
76661;PMS5003;65579;45.534;6.212;2023-02-01T02:10:53;65;61;
76661;PMS5003;65579;45.534;6.212;2023-02-01T02:13:19;64;61;
76661;PMS5003;65579;45.534;6.212;2023-02-01T02:15:45;71;68;
76661;PMS5003;65579;45.534;6.212;2023-02-01T02:18:10;60;57;
76661;PMS5003;65579;45.534;6.212;2023-02-01T02:20:40;69;62;
76661;PMS5003;65579;45.534;6.212;2023-02-01T02:25:30;53;49;
76661;PMS5003;65579;45.534;6.212;2023-02-01T02:27:53;53;49;
76661;PMS5003;65579;45.534;6.212;2023-02-01T02:32:53;48;43;
76661;PMS5003;65579;45.534;6.212;2023-02-01T02:35:09;47;42;
76661;PMS5003;65579;45.534;6.212;2023-02-01T02:37:35;46;44;
76661;PMS5003;65579;45.534;6.212;2023-02-01T02:39:59;59;52;
76661;PMS5003;65579;45.534;6.212;2023-02-01T02:42:27;52;46;
76661;PMS5003;65579;45.534;6.212;2023-02-01T02:44:51;57;54;
76661;PMS5003;65579;45.534;6.212;2023-02-01T02:47:16;51;47;
76661;PMS5003;65579;45.534;6.212;2023-02-01T02:49:42;49;45;
76661;PMS5003;65579;45.534;6.212;2023-02-01T02:52:07;53;44;
76661;PMS5003;65579;45.534;6.212;2023-02-01T02:54:32;48;43;
76661;PMS5003;65579;45.534;6.212;2023-02-01T02:56:58;56;51;
76661;PMS5003;65579;45.534;6.212;2023-02-01T02:59:23;63;60;
76661;PMS5003;65579;45.534;6.212;2023-02-01T03:01:48;55;52;
76661;PMS5003;65579;45.534;6.212;2023-02-01T03:04:14;45;43;
76661;PMS5003;65579;45.534;6.212;2023-02-01T03:06:39;41;36;
76661;PMS5003;65579;45.534;6.212;2023-02-01T03:09:06;44;43;
76661;PMS5003;65579;45.534;6.212;2023-02-01T03:11:30;48;43;
76661;PMS5003;65579;45.534;6.212;2023-02-01T03:13:57;52;46;
76661;PMS5003;65579;45.534;6.212;2023-02-01T03:16:22;49;42;
76661;PMS5003;65579;45.534;6.212;2023-02-01T03:18:47;53;47;
76661;PMS5003;65579;45.534;6.212;2023-02-01T03:21:12;45;44;
76661;PMS5003;65579;45.534;6.212;2023-02-01T03:23:36;53;50;
76661;PMS5003;65579;45.534;6.212;2023-02-01T03:26:02;67;66;
76661;PMS5003;65579;45.534;6.212;2023-02-01T03:28:27;59;53;
76661;PMS5003;65579;45.534;6.212;2023-02-01T03:30:52;60;53;
76661;PMS5003;65579;45.534;6.212;2023-02-01T03:33:18;58;53;
76661;PMS5003;65579;45.534;6.212;2023-02-01T03:35:44;56;52;
76661;PMS5003;65579;45.534;6.212;2023-02-01T03:38:11;60;59;
76661;PMS5003;65579;45.534;6.212;2023-02-01T03:40:34;65;60;
76661;PMS5003;65579;45.534;6.212;2023-02-01T03:42:59;60;56;
76661;PMS5003;65579;45.534;6.212;2023-02-01T03:45:26;66;58;
76661;PMS5003;65579;45.534;6.212;2023-02-01T03:47:50;61;58;
76661;PMS5003;65579;45.534;6.212;2023-02-01T03:50:15;57;50;
76661;PMS5003;65579;45.534;6.212;2023-02-01T03:52:41;58;55;
76661;PMS5003;65579;45.534;6.212;2023-02-01T03:55:06;51;48;
76661;PMS5003;65579;45.534;6.212;2023-02-01T03:57:32;54;48;
76661;PMS5003;65579;45.534;6.212;2023-02-01T04:02:24;54;52;
76661;PMS5003;65579;45.534;6.212;2023-02-01T04:04:48;56;56;
76661;PMS5003;65579;45.534;6.212;2023-02-01T04:07:13;56;49;
76661;PMS5003;65579;45.534;6.212;2023-02-01T04:09:39;51;49;
76661;PMS5003;65579;45.534;6.212;2023-02-01T04:12:04;56;53;
76661;PMS5003;65579;45.534;6.212;2023-02-01T04:14:30;37;35;
76661;PMS5003;65579;45.534;6.212;2023-02-01T04:16:55;58;51;
76661;PMS5003;65579;45.534;6.212;2023-02-01T04:19:21;55;52;
76661;PMS5003;65579;45.534;6.212;2023-02-01T04:21:46;61;57;
76661;PMS5003;65579;45.534;6.212;2023-02-01T04:24:11;55;50;
76661;PMS5003;65579;45.534;6.212;2023-02-01T04:26:37;62;56;
76661;PMS5003;65579;45.534;6.212;2023-02-01T04:29:02;56;51;
76661;PMS5003;65579;45.534;6.212;2023-02-01T04:31:28;55;47;
76661;PMS5003;65579;45.534;6.212;2023-02-01T04:33:54;54;48;
76661;PMS5003;65579;45.534;6.212;2023-02-01T04:36:20;39;33;
76661;PMS5003;65579;45.534;6.212;2023-02-01T04:38:45;51;49;
76661;PMS5003;65579;45.534;6.212;2023-02-01T04:41:10;52;48;
76661;PMS5003;65579;45.534;6.212;2023-02-01T04:43:36;49;48;
76661;PMS5003;65579;45.534;6.212;2023-02-01T04:46:02;56;50;
76661;PMS5003;65579;45.534;6.212;2023-02-01T04:48:27;81;69;
76661;PMS5003;65579;45.534;6.212;2023-02-01T04:50:53;68;61;
76661;PMS5003;65579;45.534;6.212;2023-02-01T04:53:18;60;53;
76661;PMS5003;65579;45.534;6.212;2023-02-01T04:55:44;63;52;
76661;PMS5003;65579;45.534;6.212;2023-02-01T04:58:09;53;52;
76661;PMS5003;65579;45.534;6.212;2023-02-01T05:00:34;50;46;
76661;PMS5003;65579;45.534;6.212;2023-02-01T05:03:00;43;38;
76661;PMS5003;65579;45.534;6.212;2023-02-01T05:05:26;62;58;
76661;PMS5003;65579;45.534;6.212;2023-02-01T05:07:51;65;62;
76661;PMS5003;65579;45.534;6.212;2023-02-01T05:10:17;60;55;
76661;PMS5003;65579;45.534;6.212;2023-02-01T05:12:43;59;57;
76661;PMS5003;65579;45.534;6.212;2023-02-01T05:15:08;79;67;
76661;PMS5003;65579;45.534;6.212;2023-02-01T05:17:34;52;51;
76661;PMS5003;65579;45.534;6.212;2023-02-01T05:19:59;55;54;
76661;PMS5003;65579;45.534;6.212;2023-02-01T05:22:24;57;53;
76661;PMS5003;65579;45.534;6.212;2023-02-01T05:24:50;62;59;
76661;PMS5003;65579;45.534;6.212;2023-02-01T05:27:16;63;55;
76661;PMS5003;65579;45.534;6.212;2023-02-01T05:29:42;78;71;
76661;PMS5003;65579;45.534;6.212;2023-02-01T05:32:09;74;70;
76661;PMS5003;65579;45.534;6.212;2023-02-01T05:34:33;64;64;
76661;PMS5003;65579;45.534;6.212;2023-02-01T05:36:58;70;64;
76661;PMS5003;65579;45.534;6.212;2023-02-01T05:39:24;58;52;
76661;PMS5003;65579;45.534;6.212;2023-02-01T05:41:49;64;59;
76661;PMS5003;65579;45.534;6.212;2023-02-01T05:44:15;64;58;
76661;PMS5003;65579;45.534;6.212;2023-02-01T05:46:40;47;42;
76661;PMS5003;65579;45.534;6.212;2023-02-01T05:49:06;53;52;
76661;PMS5003;65579;45.534;6.212;2023-02-01T05:51:32;61;54;
76661;PMS5003;65579;45.534;6.212;2023-02-01T05:53:58;67;63;
76661;PMS5003;65579;45.534;6.212;2023-02-01T05:56:24;62;57;
76661;PMS5003;65579;45.534;6.212;2023-02-01T05:58:49;60;53;
76661;PMS5003;65579;45.534;6.212;2023-02-01T06:01:14;67;61;
76661;PMS5003;65579;45.534;6.212;2023-02-01T06:03:40;77;70;
76661;PMS5003;65579;45.534;6.212;2023-02-01T06:06:05;58;55;
76661;PMS5003;65579;45.534;6.212;2023-02-01T06:08:31;73;64;
76661;PMS5003;65579;45.534;6.212;2023-02-01T06:10:58;75;70;
76661;PMS5003;65579;45.534;6.212;2023-02-01T06:13:22;79;77;
76661;PMS5003;65579;45.534;6.212;2023-02-01T06:15:47;71;67;
76661;PMS5003;65579;45.534;6.212;2023-02-01T06:18:13;71;67;
76661;PMS5003;65579;45.534;6.212;2023-02-01T06:20:38;59;52;
76661;PMS5003;65579;45.534;6.212;2023-02-01T06:23:04;65;59;
76661;PMS5003;65579;45.534;6.212;2023-02-01T06:25:29;67;64;
76661;PMS5003;65579;45.534;6.212;2023-02-01T06:27:55;55;49;
76661;PMS5003;65579;45.534;6.212;2023-02-01T06:30:20;39;39;
76661;PMS5003;65579;45.534;6.212;2023-02-01T06:32:50;61;56;
76661;PMS5003;65579;45.534;6.212;2023-02-01T06:35:11;50;49;
76661;PMS5003;65579;45.534;6.212;2023-02-01T06:37:36;82;74;
76661;PMS5003;65579;45.534;6.212;2023-02-01T06:40:02;85;81;
76661;PMS5003;65579;45.534;6.212;2023-02-01T06:42:27;92;83;
76661;PMS5003;65579;45.534;6.212;2023-02-01T06:44:53;66;58;
76661;PMS5003;65579;45.534;6.212;2023-02-01T06:47:18;72;66;
76661;PMS5003;65579;45.534;6.212;2023-02-01T06:49:44;85;82;
76661;PMS5003;65579;45.534;6.212;2023-02-01T06:52:09;95;84;
76661;PMS5003;65579;45.534;6.212;2023-02-01T06:54:35;78;75;
76661;PMS5003;65579;45.534;6.212;2023-02-01T06:57:01;81;69;
76661;PMS5003;65579;45.534;6.212;2023-02-01T06:59:26;52;50;
76661;PMS5003;65579;45.534;6.212;2023-02-01T07:01:51;95;80;
76661;PMS5003;65579;45.534;6.212;2023-02-01T07:04:17;73;70;
76661;PMS5003;65579;45.534;6.212;2023-02-01T07:06:42;83;75;
76661;PMS5003;65579;45.534;6.212;2023-02-01T07:09:07;72;62;
76661;PMS5003;65579;45.534;6.212;2023-02-01T07:11:33;74;65;
76661;PMS5003;65579;45.534;6.212;2023-02-01T07:13:59;137;122;
76661;PMS5003;65579;45.534;6.212;2023-02-01T07:45:29;81;79;
76661;PMS5003;65579;45.534;6.212;2023-02-01T07:52:46;73;66;
76661;PMS5003;65579;45.534;6.212;2023-02-01T07:57:37;95;86;
76661;PMS5003;65579;45.534;6.212;2023-02-01T08:00:04;98;83;
76661;PMS5003;65579;45.534;6.212;2023-02-01T08:02:28;93;82;
76661;PMS5003;65579;45.534;6.212;2023-02-01T08:04:54;76;69;
76661;PMS5003;65579;45.534;6.212;2023-02-01T08:07:19;101;93;
76661;PMS5003;65579;45.534;6.212;2023-02-01T08:12:09;233;212;
76661;PMS5003;65579;45.534;6.212;2023-02-01T08:17:01;170;152;
76661;PMS5003;65579;45.534;6.212;2023-02-01T08:19:26;117;115;
76661;PMS5003;65579;45.534;6.212;2023-02-01T08:21:52;121;114;
76661;PMS5003;65579;45.534;6.212;2023-02-01T08:24:17;136;120;
76661;PMS5003;65579;45.534;6.212;2023-02-01T08:26:44;107;100;
76661;PMS5003;65579;45.534;6.212;2023-02-01T08:31:33;192;179;
76661;PMS5003;65579;45.534;6.212;2023-02-01T08:34:00;212;194;
76661;PMS5003;65579;45.534;6.212;2023-02-01T08:36:25;175;158;
76661;PMS5003;65579;45.534;6.212;2023-02-01T08:38:51;172;163;
76661;PMS5003;65579;45.534;6.212;2023-02-01T08:41:16;188;174;
76661;PMS5003;65579;45.534;6.212;2023-02-01T08:43:41;149;136;
76661;PMS5003;65579;45.534;6.212;2023-02-01T08:46:07;160;151;
76661;PMS5003;65579;45.534;6.212;2023-02-01T08:48:31;129;127;
76661;PMS5003;65579;45.534;6.212;2023-02-01T08:50:57;143;137;
76661;PMS5003;65579;45.534;6.212;2023-02-01T08:53:22;94;87;
76661;PMS5003;65579;45.534;6.212;2023-02-01T08:55:48;113;108;
76661;PMS5003;65579;45.534;6.212;2023-02-01T09:03:08;141;123;
76661;PMS5003;65579;45.534;6.212;2023-02-01T09:05:30;126;110;
76661;PMS5003;65579;45.534;6.212;2023-02-01T09:07:56;115;106;
76661;PMS5003;65579;45.534;6.212;2023-02-01T09:10:21;104;96;
76661;PMS5003;65579;45.534;6.212;2023-02-01T09:12:47;111;103;
76661;PMS5003;65579;45.534;6.212;2023-02-01T09:15:11;121;114;
76661;PMS5003;65579;45.534;6.212;2023-02-01T09:17:37;131;119;
76661;PMS5003;65579;45.534;6.212;2023-02-01T09:20:03;108;99;
76661;PMS5003;65579;45.534;6.212;2023-02-01T09:22:28;127;120;
76661;PMS5003;65579;45.534;6.212;2023-02-01T09:24:53;148;137;
76661;PMS5003;65579;45.534;6.212;2023-02-01T09:27:19;109;101;
76661;PMS5003;65579;45.534;6.212;2023-02-01T09:29:44;96;90;
76661;PMS5003;65579;45.534;6.212;2023-02-01T09:32:10;86;79;
76661;PMS5003;65579;45.534;6.212;2023-02-01T09:34:35;90;82;
76661;PMS5003;65579;45.534;6.212;2023-02-01T09:37:01;91;77;
76661;PMS5003;65579;45.534;6.212;2023-02-01T09:39:26;90;85;
76661;PMS5003;65579;45.534;6.212;2023-02-01T09:41:55;93;86;
76661;PMS5003;65579;45.534;6.212;2023-02-01T09:44:22;91;87;
76661;PMS5003;65579;45.534;6.212;2023-02-01T09:46:43;104;100;
76661;PMS5003;65579;45.534;6.212;2023-02-01T09:49:10;106;99;
76661;PMS5003;65579;45.534;6.212;2023-02-01T09:51:34;117;109;
76661;PMS5003;65579;45.534;6.212;2023-02-01T09:54:01;92;87;
76661;PMS5003;65579;45.534;6.212;2023-02-01T09:56:24;76;73;
76661;PMS5003;65579;45.534;6.212;2023-02-01T09:58:51;103;93;
76661;PMS5003;65579;45.534;6.212;2023-02-01T10:01:16;106;100;
76661;PMS5003;65579;45.534;6.212;2023-02-01T10:03:41;124;115;
76661;PMS5003;65579;45.534;6.212;2023-02-01T10:08:36;112;102;
76661;PMS5003;65579;45.534;6.212;2023-02-01T10:10:57;123;113;
76661;PMS5003;65579;45.534;6.212;2023-02-01T10:13:28;106;101;
76661;PMS5003;65579;45.534;6.212;2023-02-01T10:18:17;95;82;
76661;PMS5003;65579;45.534;6.212;2023-02-01T10:20:44;83;79;
76661;PMS5003;65579;45.534;6.212;2023-02-01T10:23:06;89;83;
76661;PMS5003;65579;45.534;6.212;2023-02-01T10:25:32;82;76;
76661;PMS5003;65579;45.534;6.212;2023-02-01T10:27:56;86;84;
76661;PMS5003;65579;45.534;6.212;2023-02-01T10:30:22;72;66;
76661;PMS5003;65579;45.534;6.212;2023-02-01T10:32:47;69;63;
76661;PMS5003;65579;45.534;6.212;2023-02-01T10:35:18;70;65;
76661;PMS5003;65579;45.534;6.212;2023-02-01T10:37:39;95;91;
76661;PMS5003;65579;45.534;6.212;2023-02-01T10:40:09;82;77;
76661;PMS5003;65579;45.534;6.212;2023-02-01T10:42:29;98;92;
76661;PMS5003;65579;45.534;6.212;2023-02-01T10:44:56;83;74;
76661;PMS5003;65579;45.534;6.212;2023-02-01T10:47:19;54;51;
76661;PMS5003;65579;45.534;6.212;2023-02-01T10:49:48;42;39;
76661;PMS5003;65579;45.534;6.212;2023-02-01T10:52:12;49;46;
76661;PMS5003;65579;45.534;6.212;2023-02-01T10:54:37;40;39;
76661;PMS5003;65579;45.534;6.212;2023-02-01T10:57:01;39;38;
76661;PMS5003;65579;45.534;6.212;2023-02-01T10:59:27;55;55;
76661;PMS5003;65579;45.534;6.212;2023-02-01T11:01:58;50;48;
76661;PMS5003;65579;45.534;6.212;2023-02-01T11:04:19;50;43;
76661;PMS5003;65579;45.534;6.212;2023-02-01T11:06:45;33;33;
76661;PMS5003;65579;45.534;6.212;2023-02-01T11:11:36;25;23;
76661;PMS5003;65579;45.534;6.212;2023-02-01T11:14:02;32;30;
76661;PMS5003;65579;45.534;6.212;2023-02-01T11:16:32;22;22;
76661;PMS5003;65579;45.534;6.212;2023-02-01T11:18:53;29;25;
76661;PMS5003;65579;45.534;6.212;2023-02-01T11:21:17;25;22;
76661;PMS5003;65579;45.534;6.212;2023-02-01T11:23:43;28;25;
76661;PMS5003;65579;45.534;6.212;2023-02-01T11:26:10;27;27;
76661;PMS5003;65579;45.534;6.212;2023-02-01T11:28:34;30;29;
76661;PMS5003;65579;45.534;6.212;2023-02-01T11:31:00;26;24;
76661;PMS5003;65579;45.534;6.212;2023-02-01T11:33:26;27;26;
76661;PMS5003;65579;45.534;6.212;2023-02-01T11:35:50;26;26;
76661;PMS5003;65579;45.534;6.212;2023-02-01T11:38:20;21;19;
76661;PMS5003;65579;45.534;6.212;2023-02-01T11:40:40;25;23;
76661;PMS5003;65579;45.534;6.212;2023-02-01T11:43:08;17;16;
76661;PMS5003;65579;45.534;6.212;2023-02-01T11:45:31;21;19;
76661;PMS5003;65579;45.534;6.212;2023-02-01T11:47:57;16;16;
76661;PMS5003;65579;45.534;6.212;2023-02-01T11:50:25;16;16;
76661;PMS5003;65579;45.534;6.212;2023-02-01T11:55:16;24;23;
76661;PMS5003;65579;45.534;6.212;2023-02-01T11:57:46;23;22;
76661;PMS5003;65579;45.534;6.212;2023-02-01T12:05:00;28;24;
76661;PMS5003;65579;45.534;6.212;2023-02-01T12:07:22;30;29;
76661;PMS5003;65579;45.534;6.212;2023-02-01T12:09:49;22;19;
76661;PMS5003;65579;45.534;6.212;2023-02-01T12:12:13;22;19;
76661;PMS5003;65579;45.534;6.212;2023-02-01T12:14:41;18;17;
76661;PMS5003;65579;45.534;6.212;2023-02-01T12:21:54;22;20;
76661;PMS5003;65579;45.534;6.212;2023-02-01T12:24:24;21;20;
76661;PMS5003;65579;45.534;6.212;2023-02-01T12:31:38;26;23;
76661;PMS5003;65579;45.534;6.212;2023-02-01T12:34:05;107;95;
76661;PMS5003;65579;45.534;6.212;2023-02-01T12:38:52;28;27;
76661;PMS5003;65579;45.534;6.212;2023-02-01T12:41:19;41;41;
76661;PMS5003;65579;45.534;6.212;2023-02-01T12:43:42;49;45;
76661;PMS5003;65579;45.534;6.212;2023-02-01T12:46:07;68;63;
76661;PMS5003;65579;45.534;6.212;2023-02-01T12:48:31;66;58;
76661;PMS5003;65579;45.534;6.212;2023-02-01T12:50:57;227;198;
76661;PMS5003;65579;45.534;6.212;2023-02-01T12:53:23;160;142;
76661;PMS5003;65579;45.534;6.212;2023-02-01T12:55:47;49;43;
76661;PMS5003;65579;45.534;6.212;2023-02-01T12:58:14;47;42;
76661;PMS5003;65579;45.534;6.212;2023-02-01T13:00:40;40;35;
76661;PMS5003;65579;45.534;6.212;2023-02-01T13:03:09;41;37;
76661;PMS5003;65579;45.534;6.212;2023-02-01T13:05:33;60;58;
76661;PMS5003;65579;45.534;6.212;2023-02-01T13:07:57;45;43;
76661;PMS5003;65579;45.534;6.212;2023-02-01T13:10:21;37;35;
76661;PMS5003;65579;45.534;6.212;2023-02-01T13:12:49;30;29;
76661;PMS5003;65579;45.534;6.212;2023-02-01T13:15:13;29;29;
76661;PMS5003;65579;45.534;6.212;2023-02-01T13:17:37;25;24;
76661;PMS5003;65579;45.534;6.212;2023-02-01T13:20:05;46;39;
76661;PMS5003;65579;45.534;6.212;2023-02-01T13:22:29;35;32;
76661;PMS5003;65579;45.534;6.212;2023-02-01T13:24:54;34;32;
76661;PMS5003;65579;45.534;6.212;2023-02-01T13:27:18;28;28;
76661;PMS5003;65579;45.534;6.212;2023-02-01T13:29:46;32;29;
76661;PMS5003;65579;45.534;6.212;2023-02-01T13:32:14;29;29;
76661;PMS5003;65579;45.534;6.212;2023-02-01T13:34:40;21;21;
76661;PMS5003;65579;45.534;6.212;2023-02-01T13:39:32;28;27;
76661;PMS5003;65579;45.534;6.212;2023-02-01T13:41:52;19;18;
76661;PMS5003;65579;45.534;6.212;2023-02-01T13:44:17;15;15;
76661;PMS5003;65579;45.534;6.212;2023-02-01T13:46:43;18;17;
76661;PMS5003;65579;45.534;6.212;2023-02-01T13:51:33;19;17;
76661;PMS5003;65579;45.534;6.212;2023-02-01T13:53:58;12;12;
76661;PMS5003;65579;45.534;6.212;2023-02-01T13:58:50;17;15;
76661;PMS5003;65579;45.534;6.212;2023-02-01T14:03:44;11;11;
76661;PMS5003;65579;45.534;6.212;2023-02-01T14:08:38;14;11;
76661;PMS5003;65579;45.534;6.212;2023-02-01T14:10:55;14;14;
76661;PMS5003;65579;45.534;6.212;2023-02-01T14:13:23;10;10;
76661;PMS5003;65579;45.534;6.212;2023-02-01T14:20:40;11;11;
76661;PMS5003;65579;45.534;6.212;2023-02-01T14:23:01;10;10;
76661;PMS5003;65579;45.534;6.212;2023-02-01T14:25:31;12;12;
76661;PMS5003;65579;45.534;6.212;2023-02-01T14:27:52;11;11;
76661;PMS5003;65579;45.534;6.212;2023-02-01T14:30:17;9;9;
76661;PMS5003;65579;45.534;6.212;2023-02-01T14:32:43;11;11;
76661;PMS5003;65579;45.534;6.212;2023-02-01T14:35:12;18;16;
76661;PMS5003;65579;45.534;6.212;2023-02-01T14:37:34;13;11;
76661;PMS5003;65579;45.534;6.212;2023-02-01T14:39:59;10;10;
76661;PMS5003;65579;45.534;6.212;2023-02-01T14:42:25;11;8;
76661;PMS5003;65579;45.534;6.212;2023-02-01T14:44:50;11;11;
76661;PMS5003;65579;45.534;6.212;2023-02-01T14:52:14;9;9;
76661;PMS5003;65579;45.534;6.212;2023-02-01T15:09:04;8;8;
76661;PMS5003;65579;45.534;6.212;2023-02-01T15:13:55;10;9;
76661;PMS5003;65579;45.534;6.212;2023-02-01T15:16:20;9;8;
76661;PMS5003;65579;45.534;6.212;2023-02-01T15:18:46;10;10;
76661;PMS5003;65579;45.534;6.212;2023-02-01T15:21:16;21;19;
76661;PMS5003;65579;45.534;6.212;2023-02-01T15:23:36;24;23;
76661;PMS5003;65579;45.534;6.212;2023-02-01T15:28:26;20;17;
76661;PMS5003;65579;45.534;6.212;2023-02-01T15:40:35;27;24;
76661;PMS5003;65579;45.534;6.212;2023-02-01T15:52:46;12;12;
76661;PMS5003;65579;45.534;6.212;2023-02-01T15:55:05;9;9;
76661;PMS5003;65579;45.534;6.212;2023-02-01T15:57:31;18;16;
76661;PMS5003;65579;45.534;6.212;2023-02-01T15:59:55;10;10;
76661;PMS5003;65579;45.534;6.212;2023-02-01T16:14:28;21;17;
76661;PMS5003;65579;45.534;6.212;2023-02-01T16:16:57;14;14;
76661;PMS5003;65579;45.534;6.212;2023-02-01T16:19:18;11;11;
76661;PMS5003;65579;45.534;6.212;2023-02-01T16:21:44;14;12;
76661;PMS5003;65579;45.534;6.212;2023-02-01T16:26:35;13;13;
76661;PMS5003;65579;45.534;6.212;2023-02-01T16:29:00;12;12;
76661;PMS5003;65579;45.534;6.212;2023-02-01T16:31:25;14;13;
76661;PMS5003;65579;45.534;6.212;2023-02-01T16:33:50;12;11;
76661;PMS5003;65579;45.534;6.212;2023-02-01T16:36:15;11;11;
76661;PMS5003;65579;45.534;6.212;2023-02-01T16:38:44;16;16;
76661;PMS5003;65579;45.534;6.212;2023-02-01T16:41:06;13;11;
76661;PMS5003;65579;45.534;6.212;2023-02-01T16:46:02;11;11;
76661;PMS5003;65579;45.534;6.212;2023-02-01T16:48:23;9;9;
76661;PMS5003;65579;45.534;6.212;2023-02-01T16:50:49;10;10;
76661;PMS5003;65579;45.534;6.212;2023-02-01T17:41:41;17;16;
76661;PMS5003;65579;45.534;6.212;2023-02-01T17:44:07;16;14;
76661;PMS5003;65579;45.534;6.212;2023-02-01T17:46:32;15;15;
76661;PMS5003;65579;45.534;6.212;2023-02-01T17:48:58;18;18;
76661;PMS5003;65579;45.534;6.212;2023-02-01T17:51:24;16;15;
76661;PMS5003;65579;45.534;6.212;2023-02-01T17:53:49;11;11;
76661;PMS5003;65579;45.534;6.212;2023-02-01T17:56:15;30;29;
76661;PMS5003;65579;45.534;6.212;2023-02-01T17:58:41;34;34;
76661;PMS5003;65579;45.534;6.212;2023-02-01T18:01:09;17;15;
76661;PMS5003;65579;45.534;6.212;2023-02-01T18:03:31;26;26;
76661;PMS5003;65579;45.534;6.212;2023-02-01T18:05:58;27;26;
76661;PMS5003;65579;45.534;6.212;2023-02-01T18:08:24;25;23;
76661;PMS5003;65579;45.534;6.212;2023-02-01T18:10:48;31;27;
76661;PMS5003;65579;45.534;6.212;2023-02-01T18:13:14;26;23;
76661;PMS5003;65579;45.534;6.212;2023-02-01T18:15:41;33;31;
76661;PMS5003;65579;45.534;6.212;2023-02-01T18:18:04;38;34;
76661;PMS5003;65579;45.534;6.212;2023-02-01T18:20:29;35;30;
76661;PMS5003;65579;45.534;6.212;2023-02-01T18:22:56;20;19;
76661;PMS5003;65579;45.534;6.212;2023-02-01T18:25:22;38;36;
76661;PMS5003;65579;45.534;6.212;2023-02-01T18:27:46;45;42;
76661;PMS5003;65579;45.534;6.212;2023-02-01T18:30:11;102;89;
76661;PMS5003;65579;45.534;6.212;2023-02-01T18:32:36;95;89;
76661;PMS5003;65579;45.534;6.212;2023-02-01T18:35:04;59;56;
76661;PMS5003;65579;45.534;6.212;2023-02-01T18:37:28;82;76;
76661;PMS5003;65579;45.534;6.212;2023-02-01T18:39:53;98;89;
76661;PMS5003;65579;45.534;6.212;2023-02-01T18:42:20;131;117;
76661;PMS5003;65579;45.534;6.212;2023-02-01T18:44:45;148;129;
76661;PMS5003;65579;45.534;6.212;2023-02-01T18:49:35;50;47;
76661;PMS5003;65579;45.534;6.212;2023-02-01T18:52:02;35;35;
76661;PMS5003;65579;45.534;6.212;2023-02-01T19:01:43;71;69;
76661;PMS5003;65579;45.534;6.212;2023-02-01T19:04:08;106;99;
76661;PMS5003;65579;45.534;6.212;2023-02-01T19:06:33;130;122;
76661;PMS5003;65579;45.534;6.212;2023-02-01T19:08:58;137;130;
76661;PMS5003;65579;45.534;6.212;2023-02-01T19:11:24;149;141;
76661;PMS5003;65579;45.534;6.212;2023-02-01T19:13:49;182;167;
76661;PMS5003;65579;45.534;6.212;2023-02-01T19:16:14;136;118;
76661;PMS5003;65579;45.534;6.212;2023-02-01T19:18:39;122;111;
76661;PMS5003;65579;45.534;6.212;2023-02-01T19:21:11;163;146;
76661;PMS5003;65579;45.534;6.212;2023-02-01T19:23:31;78;70;
76661;PMS5003;65579;45.534;6.212;2023-02-01T19:25:56;89;82;
76661;PMS5003;65579;45.534;6.212;2023-02-01T19:28:29;105;92;
76661;PMS5003;65579;45.534;6.212;2023-02-01T19:30:50;194;173;
76661;PMS5003;65579;45.534;6.212;2023-02-01T19:40:27;60;54;
76661;PMS5003;65579;45.534;6.212;2023-02-01T20:02:18;61;61;
76661;PMS5003;65579;45.534;6.212;2023-02-01T20:53:14;87;81;
76661;PMS5003;65579;45.534;6.212;2023-02-01T21:10:06;64;63;
76661;PMS5003;65579;45.534;6.212;2023-02-01T21:12:42;71;68;